Time;durP1;ratioP1;P1;durP2;ratioP2;P2;SDS_P1;SDS_P2;PMS_P1;PMS_P2;Temp;Humidity;BMP_temperature;BMP_pressure;BME280_temperature;BME280_humidity;BME280_pressure;Samples;Min_cycle;Max_cycle;Signal;HPM_P1;HPM_P2
2022/05/01 00:03:30;;;;;;;5.93;3.97;;;11.40;99.90;;;;;;10537514;28;20299;-78
2022/05/01 00:08:52;;;;;;;10.30;5.07;;;11.40;99.90;;;;;;10520135;28;20228;-79
2022/05/01 00:14:14;;;;;;;6.57;4.50;;;11.40;99.90;;;;;;10557791;28;20245;-79
2022/05/01 00:19:36;;;;;;;13.98;4.82;;;11.30;99.90;;;;;;10550822;28;20195;-78
2022/05/01 00:25:13;;;;;;;8.73;4.15;;;11.30;99.90;;;;;;10565614;28;20243;-78
2022/05/01 00:30:35;;;;;;;8.40;4.72;;;11.30;99.90;;;;;;10564644;28;20185;-80
2022/05/01 00:41:39;;;;;;;7.78;4.65;;;11.30;1.00;;;;;;10564871;28;20216;-79
2022/05/01 00:47:01;;;;;;;6.78;4.35;;;11.20;99.90;;;;;;10563658;28;20208;-80
2022/05/01 00:52:25;;;;;;;8.55;3.90;;;11.10;1.00;;;;;;10564902;28;20354;-79
2022/05/01 00:57:47;;;;;;;7.72;4.63;;;11.10;1.00;;;;;;10548756;28;20198;-80
2022/05/01 01:03:08;;;;;;;8.13;4.53;;;11.10;1.00;;;;;;10535895;28;20248;-79
2022/05/01 01:08:30;;;;;;;7.40;4.60;;;11.00;1.00;;;;;;10520521;28;20305;-79
2022/05/01 01:13:51;;;;;;;9.10;5.20;;;10.90;1.00;;;;;;10549084;28;20451;-78
2022/05/01 01:19:13;;;;;;;7.13;4.15;;;10.90;1.00;;;;;;10548648;28;20194;-79
2022/05/01 01:24:41;;;;;;;4.77;3.87;;;10.80;1.00;;;;;;10562440;28;20234;-80
2022/05/01 01:35:47;;;;;;;5.90;4.00;;;10.70;1.00;;;;;;10561891;28;20397;-80
2022/05/01 01:41:09;;;;;;;6.15;3.45;;;10.70;1.00;;;;;;10561512;28;20269;-78
2022/05/01 01:46:32;;;;;;;8.50;3.75;;;10.70;1.00;;;;;;10547456;28;20205;-81
2022/05/01 01:51:53;;;;;;;6.22;3.50;;;10.70;1.00;;;;;;10562589;28;20241;-79
2022/05/01 01:57:14;;;;;;;6.60;4.05;;;10.70;1.00;;;;;;10547121;28;20199;-79
2022/05/01 02:02:35;;;;;;;6.43;3.97;;;10.70;1.00;;;;;;10537441;28;20257;-80
2022/05/01 02:07:58;;;;;;;6.53;4.25;;;10.60;1.00;;;;;;10520034;28;20258;-80
2022/05/01 02:13:19;;;;;;;7.77;4.03;;;10.60;1.00;;;;;;10540188;28;20201;-80
2022/05/01 02:18:40;;;;;;;7.50;3.93;;;10.60;1.00;;;;;;10560508;28;20200;-78
2022/05/01 02:24:04;;;;;;;7.20;3.97;;;10.60;1.00;;;;;;10561315;28;20301;-78
2022/05/01 02:29:26;;;;;;;8.50;4.22;;;10.50;22.10;;;;;;10561693;28;20265;-80
2022/05/01 02:34:47;;;;;;;9.80;5.43;;;10.50;49.60;;;;;;10560610;28;20191;-81
2022/05/01 02:40:09;;;;;;;9.00;6.10;;;10.50;99.90;;;;;;10568716;28;20195;-80
2022/05/01 02:45:30;;;;;;;9.83;4.60;;;10.30;99.90;;;;;;10568900;28;20446;-78
2022/05/01 02:50:52;;;;;;;7.13;3.93;;;10.30;99.90;;;;;;10568396;28;20269;-77
2022/05/01 02:56:13;;;;;;;6.20;4.13;;;10.30;1.00;;;;;;10569591;28;20201;-79
2022/05/01 03:01:34;;;;;;;9.60;4.30;;;10.20;1.00;;;;;;10554000;28;20213;-80
2022/05/01 03:06:56;;;;;;;15.73;7.23;;;10.20;1.00;;;;;;10527014;28;20380;-80
2022/05/01 03:12:18;;;;;;;14.40;6.77;;;10.10;1.00;;;;;;10542064;28;20206;-79
2022/05/01 03:23:19;;;;;;;19.90;9.93;;;10.00;1.00;;;;;;10568203;28;20300;-78
2022/05/01 03:28:41;;;;;;;13.40;6.87;;;10.00;1.00;;;;;;10484694;28;20195;-80
2022/05/01 03:34:04;;;;;;;11.77;4.73;;;9.90;1.00;;;;;;10483210;28;20249;-78
2022/05/01 03:39:25;;;;;;;6.67;4.20;;;10.00;1.00;;;;;;10484496;28;20192;-78
2022/05/01 03:44:46;;;;;;;10.50;4.77;;;9.90;99.90;;;;;;10482891;28;20532;-79
2022/05/01 03:50:08;;;;;;;11.30;4.10;;;10.00;99.90;;;;;;10482207;28;20262;-80
2022/05/01 03:55:30;;;;;;;7.90;4.40;;;9.90;1.00;;;;;;10482528;28;20219;-78
2022/05/01 04:00:51;;;;;;;14.17;7.37;;;10.00;99.90;;;;;;10473473;28;20503;-79
2022/05/01 04:06:12;;;;;;;12.03;6.20;;;10.00;98.90;;;;;;10440569;28;20232;-82
2022/05/01 04:11:34;;;;;;;13.27;7.20;;;10.10;99.90;;;;;;10447558;28;20421;-80
2022/05/01 04:16:56;;;;;;;14.57;7.77;;;10.10;1.00;;;;;;10482601;28;20194;-79
2022/05/01 04:22:18;;;;;;;25.97;13.43;;;10.10;99.90;;;;;;10481428;28;20240;-80
2022/05/01 04:27:39;;;;;;;22.77;14.20;;;10.10;84.00;;;;;;10552612;28;20227;-78
2022/05/01 04:33:00;;;;;;;20.77;10.30;;;10.20;1.00;;;;;;10565317;28;20201;-79
2022/05/01 04:38:23;;;;;;;10.02;6.47;;;10.20;1.00;;;;;;10564549;28;20238;-78
2022/05/01 04:43:46;;;;;;;14.70;6.50;;;10.30;1.00;;;;;;10549715;28;20229;-79
2022/05/01 04:49:08;;;;;;;11.50;5.47;;;10.30;1.00;;;;;;10564791;28;20263;-78
2022/05/01 04:54:29;;;;;;;10.00;6.20;;;10.30;1.00;;;;;;10563572;28;20203;-78
2022/05/01 04:59:50;;;;;;;21.80;10.50;;;10.30;99.90;;;;;;10562992;28;20484;-79
2022/05/01 05:05:12;;;;;;;17.70;8.97;;;10.30;99.90;;;;;;10520813;28;20230;-77
2022/05/01 05:10:33;;;;;;;12.90;5.60;;;10.30;99.90;;;;;;10518407;28;20191;-77
2022/05/01 05:15:58;;;;;;;7.30;4.63;;;10.30;1.00;;;;;;10562378;28;20251;-80
2022/05/01 05:21:20;;;;;;;7.60;4.10;;;10.40;1.00;;;;;;10563688;28;20194;-78
2022/05/01 05:26:41;;;;;;;6.60;4.17;;;10.50;1.00;;;;;;10563240;28;20230;-78
2022/05/01 05:32:03;;;;;;;5.63;3.55;;;10.60;1.00;;;;;;10562081;28;20269;-78
2022/05/01 05:37:25;;;;;;;6.53;4.00;;;10.70;99.90;;;;;;10563361;28;20267;-80
2022/05/01 05:42:46;;;;;;;5.97;3.93;;;10.90;1.00;;;;;;10562978;28;20240;-80
2022/05/01 05:48:08;;;;;;;8.38;4.40;;;11.10;99.90;;;;;;10561154;28;20202;-81
2022/05/01 05:53:30;;;;;;;8.13;4.63;;;11.20;1.00;;;;;;10561572;28;20224;-77
2022/05/01 05:58:52;;;;;;;8.57;4.65;;;11.30;1.00;;;;;;10546653;28;20212;-79
2022/05/01 06:04:13;;;;;;;6.50;4.13;;;11.50;99.90;;;;;;10523995;28;20573;-78
2022/05/01 06:09:36;;;;;;;5.38;3.60;;;11.80;37.80;;;;;;10512772;28;20203;-81
2022/05/01 06:14:57;;;;;;;6.93;3.95;;;12.20;1.00;;;;;;10559519;28;20199;-79
2022/05/01 06:20:20;;;;;;;5.00;3.45;;;12.30;99.90;;;;;;10560974;28;20200;-80
2022/05/01 06:25:43;;;;;;;4.60;3.28;;;12.50;36.00;;;;;;10560504;28;20241;-80
2022/05/01 06:31:05;;;;;;;4.40;3.00;;;13.60;1.00;;;;;;10560406;28;20551;-78
2022/05/01 06:36:27;;;;;;;5.85;3.20;;;14.60;84.00;;;;;;10561624;28;20378;-80
2022/05/01 06:41:49;;;;;;;5.60;2.88;;;15.70;1.00;;;;;;10560384;28;20211;-78
2022/05/01 06:47:13;;;;;;;4.85;2.05;;;16.00;99.90;;;;;;10560222;28;20193;-78
2022/05/01 06:52:34;;;;;;;5.18;2.40;;;16.70;1.00;;;;;;10561088;28;20193;-79
2022/05/01 06:57:55;;;;;;;5.85;2.20;;;16.70;1.00;;;;;;10559908;28;20396;-80
2022/05/01 07:03:17;;;;;;;7.70;2.75;;;16.20;1.00;;;;;;10530388;28;20253;-80
2022/05/01 07:08:39;;;;;;;3.35;2.35;;;15.70;1.00;;;;;;10516520;28;20198;-78
2022/05/01 07:14:00;;;;;;;4.10;2.15;;;15.10;1.00;;;;;;10548077;28;20214;-78
2022/05/01 07:19:21;;;;;;;5.03;2.20;;;14.50;1.00;;;;;;10545367;28;20205;-78
2022/05/01 07:24:42;;;;;;;2.90;1.98;;;14.20;1.00;;;;;;10549539;28;20567;-78
2022/05/01 07:30:05;;;;;;;2.88;2.15;;;14.00;1.00;;;;;;10566567;28;20207;-81
2022/05/01 07:35:26;;;;;;;5.07;2.60;;;13.80;1.00;;;;;;10567201;28;20194;-78
2022/05/01 07:40:49;;;;;;;4.55;2.22;;;13.70;1.00;;;;;;10566425;28;20194;-78
2022/05/01 07:46:11;;;;;;;6.40;3.42;;;13.90;1.00;;;;;;10567418;28;20224;-79
2022/05/01 07:51:32;;;;;;;5.53;2.85;;;14.00;1.00;;;;;;10566673;28;20430;-78
2022/05/01 07:56:53;;;;;;;7.35;2.97;;;14.10;1.00;;;;;;10566265;28;20284;-81
2022/05/01 08:02:14;;;;;;;3.60;2.30;;;14.50;1.00;;;;;;10545252;28;20357;-78
2022/05/01 08:07:37;;;;;;;4.38;2.00;;;15.40;1.00;;;;;;10524685;28;20283;-78
2022/05/01 08:12:59;;;;;;;2.72;1.67;;;15.40;1.00;;;;;;10541919;28;20196;-78
2022/05/01 08:24:00;;;;;;;2.67;1.75;;;14.90;99.90;;;;;;10564438;28;20265;-78
2022/05/01 08:29:21;;;;;;;4.65;2.40;;;14.90;99.90;;;;;;10565017;28;20567;-78
2022/05/01 08:34:43;;;;;;;2.67;1.65;;;15.20;99.90;;;;;;10564905;28;20200;-77
2022/05/01 08:40:05;;;;;;;2.72;1.52;;;15.60;99.90;;;;;;10549857;28;20391;-78
2022/05/01 08:45:47;;;;;;;2.30;1.20;;;16.40;99.90;;;;;;10564141;28;20226;-77
2022/05/01 08:51:11;;;;;;;3.78;1.60;;;17.10;99.90;;;;;;10564054;28;20190;-78
2022/05/01 08:56:34;;;;;;;5.22;1.95;;;17.20;99.90;;;;;;10564577;28;20186;-78
2022/05/01 09:01:56;;;;;;;6.85;1.60;;;16.90;99.90;;;;;;10546167;28;20207;-78
2022/05/01 09:07:18;;;;;;;7.53;1.48;;;17.00;99.90;;;;;;10522079;28;20508;-78
2022/05/01 09:12:50;;;;;;;2.17;1.30;;;17.20;99.90;;;;;;10535669;28;20206;-78
2022/05/01 09:18:14;;;;;;;4.15;2.22;;;17.40;99.90;;;;;;10563884;28;20456;-78
2022/05/01 09:23:44;;;;;;;3.92;1.80;;;18.30;99.90;;;;;;10561837;28;20428;-79
2022/05/01 09:29:05;;;;;;;4.28;1.38;;;19.50;92.00;;;;;;10563401;28;20187;-79
2022/05/01 09:34:29;;;;;;;5.32;1.60;;;20.10;1.00;;;;;;10562016;28;20209;-78
2022/05/01 09:39:51;;;;;;;4.85;1.95;;;19.90;1.00;;;;;;10561595;28;20274;-79
2022/05/01 09:45:14;;;;;;;4.55;2.00;;;19.70;1.00;;;;;;10561008;28;20240;-78
2022/05/01 09:50:41;;;;;;;4.50;2.05;;;19.10;1.00;;;;;;10562798;28;20186;-78
2022/05/01 09:56:02;;;;;;;3.22;2.13;;;18.70;1.00;;;;;;10561551;28;20194;-77
2022/05/01 10:01:23;;;;;;;3.72;1.90;;;18.30;1.00;;;;;;10547609;28;20205;-80
2022/05/01 10:06:45;;;;;;;3.83;2.38;;;18.30;1.00;;;;;;10519953;28;20470;-78
2022/05/01 10:12:08;;;;;;;6.82;2.00;;;18.30;1.00;;;;;;10531937;28;20202;-78
2022/05/01 10:17:32;;;;;;;4.55;1.67;;;18.30;1.00;;;;;;10562483;28;20274;-78
2022/05/01 10:22:55;;;;;;;2.90;1.70;;;18.40;1.00;;;;;;10560812;28;20432;-79
2022/05/01 10:28:38;;;;;;;4.75;2.25;;;18.10;1.00;;;;;;10561055;28;20249;-80
2022/05/01 10:34:21;;;;;;;5.75;1.98;;;17.70;1.00;;;;;;10561742;28;20194;-80
2022/05/01 10:39:45;;;;;;;3.65;1.90;;;17.40;1.00;;;;;;10560314;28;20273;-81
2022/05/01 10:45:21;;;;;;;4.28;2.22;;;17.30;1.00;;;;;;10561148;28;20603;-78
2022/05/01 10:50:43;;;;;;;2.85;1.77;;;17.30;1.00;;;;;;10561098;28;20236;-79
2022/05/01 10:56:22;;;;;;;3.78;1.70;;;17.40;1.00;;;;;;10560295;28;20512;-78
2022/05/01 11:02:00;;;;;;;4.25;2.00;;;18.00;1.00;;;;;;10552878;28;20213;-78
2022/05/01 11:07:23;;;;;;;5.47;1.95;;;18.40;1.00;;;;;;10526788;28;20223;-78
2022/05/01 11:12:46;;;;;;;3.85;2.08;;;18.60;1.00;;;;;;10524574;28;20202;-80
2022/05/01 11:18:08;;;;;;;3.88;2.28;;;18.60;1.00;;;;;;10529205;28;20192;-80
2022/05/01 11:23:33;;;;;;;5.97;2.80;;;18.40;1.00;;;;;;10527750;28;20222;-81
2022/05/01 11:29:08;;;;;;;2.97;2.05;;;18.50;1.00;;;;;;10527823;28;20245;-80
2022/05/01 11:34:32;;;;;;;3.47;2.30;;;18.40;1.00;;;;;;10526925;28;20187;-80
2022/05/01 11:39:57;;;;;;;2.58;1.48;;;18.70;1.00;;;;;;10528217;28;20195;-80
2022/05/01 11:45:19;;;;;;;4.90;2.05;;;18.90;1.00;;;;;;10527052;28;20326;-81
2022/05/01 11:50:42;;;;;;;3.47;2.20;;;19.10;1.00;;;;;;10527634;28;20279;-79
2022/05/01 12:07:28;;;;;;;3.67;1.80;;;18.90;1.00;;;;;;10526634;28;20238;-81
2022/05/01 12:12:50;;;;;;;3.42;2.03;;;18.90;1.00;;;;;;10541215;28;20201;-80
2022/05/01 12:18:11;;;;;;;7.22;2.35;;;19.10;1.00;;;;;;10573046;28;20220;-78
2022/05/01 12:23:32;;;;;;;2.22;1.85;;;19.30;1.00;;;;;;10553393;28;20566;-78
2022/05/01 12:28:54;;;;;;;3.00;1.95;;;19.30;1.00;;;;;;10552608;28;20194;-78
2022/05/01 12:34:22;;;;;;;3.45;1.67;;;19.50;1.00;;;;;;10568414;28;20189;-81
2022/05/01 12:40:12;;;;;;;4.15;1.80;;;19.50;1.00;;;;;;10566829;28;20190;-78
2022/05/01 12:45:37;;;;;;;3.10;1.95;;;19.30;1.00;;;;;;10565710;28;20271;-79
2022/05/01 12:50:59;;;;;;;2.65;1.67;;;19.40;1.00;;;;;;10566085;28;20533;-79
2022/05/01 12:56:22;;;;;;;4.55;1.98;;;19.70;1.00;;;;;;10566526;28;20492;-79
2022/05/01 13:01:44;;;;;;;4.25;2.10;;;19.80;1.00;;;;;;10550044;28;20275;-79
2022/05/01 13:07:05;;;;;;;4.03;1.70;;;19.70;1.00;;;;;;10521334;28;20408;-80
2022/05/01 13:12:32;;;;;;;3.42;2.08;;;19.30;1.00;;;;;;10533007;28;20248;-78
2022/05/01 13:18:01;;;;;;;4.10;1.90;;;18.90;1.00;;;;;;10562851;28;20213;-80
2022/05/01 13:23:23;;;;;;;4.03;2.40;;;18.90;1.00;;;;;;10562628;28;20233;-78
2022/05/01 13:28:45;;;;;;;4.00;2.47;;;18.40;1.00;;;;;;10562543;28;20190;-78
2022/05/01 13:34:08;;;;;;;5.00;2.92;;;17.90;1.00;;;;;;10562063;28;20266;-79
2022/05/01 13:45:10;;;;;;;5.43;3.20;;;17.70;1.00;;;;;;10561526;28;20248;-79
2022/05/01 13:50:32;;;;;;;6.38;3.42;;;17.80;1.00;;;;;;10562782;28;20189;-78
2022/05/01 13:55:54;;;;;;;3.65;1.50;;;17.50;1.00;;;;;;10562480;28;20367;-79
2022/05/01 14:01:15;;;;;;;2.63;1.80;;;17.40;1.00;;;;;;10549487;28;20516;-79
2022/05/01 14:06:37;;;;;;;4.05;2.10;;;17.20;1.00;;;;;;10520009;28;20285;-79
2022/05/01 14:11:58;;;;;;;4.72;2.67;;;17.20;1.00;;;;;;10525645;28;20202;-78
2022/05/01 14:17:20;;;;;;;4.32;2.15;;;17.10;1.00;;;;;;10546825;28;20269;-80
2022/05/01 14:22:41;;;;;;;3.88;2.80;;;17.00;1.00;;;;;;10560792;28;20277;-78
2022/05/01 14:28:02;;;;;;;6.25;3.65;;;16.80;1.00;;;;;;10561219;28;20417;-78
2022/05/01 14:33:42;;;;;;;9.82;4.72;;;16.70;1.00;;;;;;10567992;28;20541;-80
2022/05/01 14:39:09;;;;;;;7.03;3.95;;;16.40;1.00;;;;;;10574432;28;20201;-78
2022/05/01 14:44:45;;;;;;;6.72;4.13;;;16.50;1.00;;;;;;10575338;28;20288;-78
2022/05/01 14:50:10;;;;;;;5.25;3.10;;;16.40;1.00;;;;;;10574436;28;20192;-79
2022/05/01 14:55:33;;;;;;;6.68;3.80;;;16.20;1.00;;;;;;10559438;28;20214;-78
2022/05/01 15:06:37;;;;;;;7.38;3.80;;;16.00;1.00;;;;;;10532680;28;20288;-79
2022/05/01 15:12:00;;;;;;;9.00;3.40;;;15.90;1.00;;;;;;10540219;28;20201;-77
2022/05/01 15:17:25;;;;;;;6.68;4.00;;;16.10;1.00;;;;;;10559491;28;20491;-78
2022/05/01 15:23:06;;;;;;;10.55;3.83;;;16.10;1.00;;;;;;10559138;28;20271;-79
2022/05/01 15:28:31;;;;;;;5.85;3.50;;;15.80;1.00;;;;;;10573740;28;20196;-78
2022/05/01 15:33:53;;;;;;;8.82;4.82;;;15.80;1.00;;;;;;10573878;28;20219;-80
2022/05/01 15:39:19;;;;;;;9.20;4.70;;;15.90;1.00;;;;;;10574087;28;20191;-79
2022/05/01 15:44:41;;;;;;;7.43;3.83;;;15.90;1.00;;;;;;10568942;28;20234;-79
2022/05/01 15:55:53;;;;;;;5.05;4.18;;;15.50;1.00;;;;;;10563416;28;20281;-80
2022/05/01 16:01:15;;;;;;;9.38;4.55;;;15.30;1.00;;;;;;10551110;28;20208;-80
2022/05/01 16:06:39;;;;;;;8.43;4.82;;;15.10;1.00;;;;;;10504511;28;20236;-78
2022/05/01 16:12:33;;;;;;;8.68;3.33;;;14.90;1.00;;;;;;10539395;28;20261;-78
2022/05/01 16:18:20;;;;;;;4.60;2.92;;;14.90;1.00;;;;;;10545602;28;20424;-79
2022/05/01 16:23:57;;;;;;;8.35;3.90;;;14.80;1.00;;;;;;10562688;28;20388;-79
2022/05/01 16:29:37;;;;;;;9.23;7.00;;;14.80;1.00;;;;;;10548600;28;20276;-78
2022/05/01 16:35:32;;;;;;;11.23;5.97;;;14.70;1.00;;;;;;10555929;28;20251;-79
2022/05/01 16:41:59;;;;;;;9.20;6.07;;;14.60;1.00;;;;;;10567348;28;20390;-80
2022/05/01 16:47:21;;;;;;;11.68;5.43;;;14.40;1.00;;;;;;10567963;28;20292;-78
2022/05/01 16:52:48;;;;;;;6.55;4.15;;;14.40;8.10;;;;;;10563827;28;20331;-80
2022/05/01 16:58:11;;;;;;;9.63;5.53;;;14.30;14.80;;;;;;10567643;28;20208;-78
2022/05/01 17:03:50;;;;;;;11.25;8.25;;;14.20;13.10;;;;;;10534004;28;20410;-79
2022/05/01 17:09:26;;;;;;;11.57;7.90;;;14.20;18.40;;;;;;10516495;28;20205;-81
2022/05/01 17:15:11;;;;;;;12.90;6.28;;;14.20;23.50;;;;;;10558216;28;20424;-79
2022/05/01 17:20:37;;;;;;;11.23;5.93;;;14.10;29.60;;;;;;10571177;28;20201;-78
2022/05/01 17:26:02;;;;;;;9.93;5.60;;;14.10;35.00;;;;;;10562586;28;20233;-78
2022/05/01 17:31:25;;;;;;;13.50;8.25;;;14.00;39.10;;;;;;10562380;28;20435;-79
2022/05/01 17:36:49;;;;;;;11.10;7.15;;;13.90;51.10;;;;;;10565029;28;20235;-80
2022/05/01 17:42:12;;;;;;;12.77;8.00;;;13.90;64.20;;;;;;10570502;28;20178;-80
2022/05/01 17:47:38;;;;;;;16.30;9.10;;;13.80;76.90;;;;;;10567580;28;20266;-78
2022/05/01 17:53:01;;;;;;;15.32;9.23;;;13.70;93.20;;;;;;10567828;28;20185;-77
2022/05/01 17:58:24;;;;;;;19.83;12.35;;;13.70;99.90;;;;;;10566209;28;20401;-77
2022/05/01 18:09:57;;;;;;;19.85;13.23;;;13.60;99.90;;;;;;10532480;28;20214;-79
2022/05/01 18:09:59;;;;;;;25.75;14.93;;;13.60;99.90;;;;;;10523306;28;20273;-77
2022/05/01 18:15:43;;;;;;;21.83;14.85;;;13.50;99.90;;;;;;10509749;28;20388;-77
2022/05/01 18:21:05;;;;;;;22.92;12.90;;;13.40;99.90;;;;;;10527470;28;20214;-78
2022/05/01 18:26:41;;;;;;;23.30;13.38;;;13.30;99.90;;;;;;10523982;28;20246;-77
2022/05/01 18:32:30;;;;;;;28.13;15.85;;;13.10;99.90;;;;;;10505022;28;20272;-76
2022/05/01 18:38:21;;;;;;;24.00;15.65;;;13.00;99.90;;;;;;10519764;28;20216;-78
2022/05/01 18:43:43;;;;;;;25.55;16.10;;;12.80;1.00;;;;;;10519958;28;20198;-79
2022/05/01 18:49:06;;;;;;;22.05;13.93;;;12.60;1.00;;;;;;10518552;28;20208;-80
2022/05/01 18:54:31;;;;;;;21.52;14.30;;;12.60;1.00;;;;;;10504637;28;20220;-81
2022/05/01 18:59:52;;;;;;;30.58;18.77;;;12.50;38.10;;;;;;10518112;28;20209;-80
2022/05/01 19:05:15;;;;;;;21.48;13.77;;;12.30;99.90;;;;;;10518953;28;20239;-78
2022/05/01 19:10:47;;;;;;;18.35;10.80;;;12.20;1.00;;;;;;10514694;28;20199;-80
2022/05/01 19:16:17;;;;;;;16.45;10.55;;;12.00;99.90;;;;;;10560672;28;20353;-79
2022/05/01 19:21:38;;;;;;;19.40;10.00;;;11.90;1.00;;;;;;10565838;28;20199;-78
2022/05/01 19:27:21;;;;;;;13.32;8.40;;;11.70;1.00;;;;;;10552689;28;20615;-81
2022/05/01 19:32:48;;;;;;;13.82;7.05;;;11.50;1.00;;;;;;10568086;28;20489;-81
2022/05/01 19:38:29;;;;;;;9.70;5.95;;;11.40;1.00;;;;;;10552707;28;20202;-78
2022/05/01 19:43:57;;;;;;;9.90;6.63;;;11.20;99.90;;;;;;10567820;28;20245;-80
2022/05/01 19:55:13;;;;;;;11.77;5.80;;;11.10;99.90;;;;;;10551917;28;20482;-78
2022/05/01 20:06:24;;;;;;;15.33;9.27;;;11.00;46.70;;;;;;10438531;28;20260;-79
2022/05/01 20:11:46;;;;;;;28.10;16.00;;;10.90;93.60;;;;;;10415414;28;20208;-81
2022/05/01 20:17:08;;;;;;;36.47;19.42;;;10.80;99.90;;;;;;10421375;28;20220;-78
2022/05/01 20:22:53;;;;;;;33.33;19.17;;;10.70;99.90;;;;;;10438346;28;20572;-80
2022/05/01 20:28:14;;;;;;;27.43;16.33;;;10.60;1.00;;;;;;10437879;28;20306;-78
2022/05/01 20:33:54;;;;;;;23.67;12.90;;;10.50;99.90;;;;;;10437207;28;20270;-78
2022/05/01 20:39:32;;;;;;;16.85;10.27;;;10.40;99.90;;;;;;10440952;28;20498;-78
2022/05/01 20:45:09;;;;;;;19.43;11.20;;;10.30;99.90;;;;;;10522731;28;20222;-79
2022/05/01 20:50:47;;;;;;;16.13;10.20;;;10.20;99.90;;;;;;10523383;28;20195;-79
2022/05/01 20:56:09;;;;;;;17.50;9.43;;;10.10;99.90;;;;;;10521968;28;20223;-79
2022/05/01 21:01:34;;;;;;;15.73;9.50;;;10.10;99.90;;;;;;10521226;28;20217;-81
2022/05/01 21:06:58;;;;;;;20.07;11.60;;;10.00;99.90;;;;;;10521553;28;20223;-80
2022/05/01 21:12:20;;;;;;;22.67;12.27;;;9.90;99.90;;;;;;10532262;28;20237;-81
2022/05/01 21:17:43;;;;;;;18.53;11.47;;;9.80;99.90;;;;;;10564465;28;20198;-79
2022/05/01 21:23:05;;;;;;;20.50;11.17;;;9.70;99.90;;;;;;10562909;28;20205;-79
2022/05/01 21:34:08;;;;;;;16.53;10.03;;;9.60;99.90;;;;;;10562602;28;20547;-80
2022/05/01 21:39:29;;;;;;;17.27;10.23;;;9.50;99.90;;;;;;10563194;28;20202;-78
2022/05/01 21:44:50;;;;;;;16.07;9.57;;;9.50;99.90;;;;;;10560954;28;20262;-79
2022/05/01 21:50:12;;;;;;;17.90;9.93;;;9.40;99.90;;;;;;10562071;28;20205;-81
2022/05/01 21:55:36;;;;;;;16.67;9.70;;;9.30;99.90;;;;;;10562926;28;20224;-80
2022/05/01 22:00:57;;;;;;;15.27;9.17;;;9.20;1.00;;;;;;10551729;28;20206;-78
2022/05/01 22:06:19;;;;;;;12.20;8.13;;;9.20;1.00;;;;;;10519515;28;20226;-79
2022/05/01 22:11:41;;;;;;;13.40;8.00;;;9.10;1.00;;;;;;10530227;28;20201;-79
2022/05/01 22:17:11;;;;;;;14.57;8.07;;;9.00;1.00;;;;;;10561439;28;20489;-80
2022/05/01 22:22:32;;;;;;;12.83;7.40;;;9.00;1.00;;;;;;10562559;28;20189;-78
2022/05/01 22:27:54;;;;;;;15.83;7.07;;;8.80;40.50;;;;;;10569548;28;20234;-78
2022/05/01 22:33:15;;;;;;;11.50;6.97;;;8.80;99.90;;;;;;10560772;28;20194;-79
2022/05/01 22:38:38;;;;;;;12.70;6.87;;;8.70;1.00;;;;;;10561679;28;20199;-77
2022/05/01 22:43:59;;;;;;;10.47;7.70;;;8.60;1.00;;;;;;10560295;28;20201;-78
2022/05/01 22:49:20;;;;;;;16.13;8.60;;;8.50;99.90;;;;;;10561388;28;20238;-80
2022/05/01 22:54:41;;;;;;;11.83;7.60;;;8.40;1.00;;;;;;10565251;28;20195;-80
2022/05/01 23:00:05;;;;;;;11.70;7.33;;;8.20;1.00;;;;;;10552065;28;20194;-78
2022/05/01 23:05:26;;;;;;;15.03;7.37;;;8.20;99.90;;;;;;10527422;28;20251;-79
2022/05/01 23:10:47;;;;;;;16.13;7.80;;;8.10;28.90;;;;;;10523009;28;20203;-77
2022/05/01 23:16:08;;;;;;;16.77;8.07;;;8.10;1.00;;;;;;10568949;28;20195;-80
2022/05/01 23:21:30;;;;;;;13.03;7.53;;;8.10;99.90;;;;;;10553602;28;20196;-79
2022/05/01 23:26:51;;;;;;;11.33;7.10;;;8.10;1.00;;;;;;10568223;28;20247;-80
2022/05/01 23:32:12;;;;;;;13.90;7.97;;;8.00;99.90;;;;;;10568431;28;20315;-78
2022/05/01 23:37:34;;;;;;;14.40;8.80;;;7.90;1.00;;;;;;10552493;28;20211;-78
2022/05/01 23:42:56;;;;;;;12.57;8.50;;;7.90;22.00;;;;;;10567838;28;20194;-80
2022/05/01 23:48:17;;;;;;;14.73;9.17;;;7.80;99.90;;;;;;10566869;28;20239;-79
2022/05/01 23:53:38;;;;;;;18.43;10.37;;;7.80;1.00;;;;;;10552174;28;20197;-79
2022/05/01 23:58:59;;;;;;;17.10;10.47;;;7.70;1.00;;;;;;10567478;28;20205;-81
